Mooney, MT

12:36 PM MDT on October 21, 2014 (GMT -0600)
Mooney | Change Station
CLOSE
Current Station
Airport
Location: Butte,
Elevation: 5545 ft
Nearby Weather Stations
Active Advisory: Winter Weather Advisory Active Notice: Record Report

Elev 5545 ft 45.95 °N, 112.50 °W | Updated 23 minutes ago

Rain
Rain Mist
42 °F
Feels Like 36 °F
N
10
Wind Variable Wind from NW
Gusts 21 mph

Today
High -- | Low -- °F
--% Chance of Precip.
Yesterday
High -- | Low -- °F
Precip. -- in
7:55 AM 6:33 PM
Waning Crescent, 5% visible
Pressure 29.85 in
Visibility 3.0 miles
Clouds Scattered Clouds 1600 ft
Overcast 2400 ft
Windchill 36 °F
Dew Point 40 °F
Humidity 92%
Rainfall 0.20 in
Snow Depth Not available.
UV 1 out of 12
Pollen .70 out of 12
Air Quality Not available.
Flu Activity No Activity
SPECI KBTM 211813Z AUTO 31009G18KT 3SM RA BR SCT016 OVC024 06/04 A2985 RMK AO2 LTG DSNT N P0003 T00560044

More Conditions Fewer Conditions

Pressure 29.85 in
Visibility 3.0 miles
Clouds Scattered Clouds 1600 ft
Overcast 2400 ft
Windchill 36 °F
Dew Point 40 °F
Humidity 92%
Rainfall 0.20 in
Snow Depth Not available.
UV 1 out of 12
Pollen .70 out of 12
Air Quality Not available.
Flu Activity No Activity
SPECI KBTM 211813Z AUTO 31009G18KT 3SM RA BR SCT016 OVC024 06/04 A2985 RMK AO2 LTG DSNT N P0003 T00560044

More Conditions Fewer Conditions

10-Day Weather Forecast

Almanac

Astronomy

Oct. 21, 2014 Rise Set
Actual Time 7:55 AM MDT 6:33 PM MDT
Civil Twilight 7:24 AM MDT 7:03 PM MDT
Nautical Twilight 6:49 AM MDT 7:38 PM MDT
Astronomical Twilight 6:15 AM MDT 8:12 PM MDT
Moon 5:36 AM MDT 5:34 PM MDT
Length of Visible Light 11h 39m
Length of Day
10h 38m
Tomorrow will be 3m 4s shorter.
Waning Crescent, 5% of the Moon is Illuminated
Today
Waning Crescent
Oct 23
New
Oct 30
First Quarter
Nov 6
Full
Nov 14
Last Quarter

Today's Extremes

State Highs State Lows

Community

WunderPhotos

Upload Photos

1,763,738 photos uploaded!

Nearby

Snow Depth

Station Depth Elevation
Brackett Creek 1 in 7320 ft
Peterson Meadows 0 in 7200 ft
Mule Creek 1 in 8300 ft
Black Pine 1 in 7210 ft
Combination 0 in 5600 ft

Earthquake Activity

City Distance Mag. Time & Date
No recent earthquake activity has been reported nearby.
Minimum magnitude displayed is 2.5.

Coastal Water Temperatures

Place Temperature
No Stations Reporting

Nearby Weather Stations